地図

経路データ

SID SEASON NUMBER BASIN SUBBASIN NAME ISO_TIME NATURE LAT LON WMO_WIND WMO_PRES WMO_AGENCY TRACK_TYPE DIST2LAND LANDFALL IFLAG USA_AGENCY USA_ATCF_ID USA_LAT USA_LON USA_RECORD USA_STATUS USA_WIND USA_PRES USA_SSHS USA_R34_NE USA_R34_SE USA_R34_SW USA_R34_NW USA_R50_NE USA_R50_SE USA_R50_SW USA_R50_NW USA_R64_NE USA_R64_SE USA_R64_SW USA_R64_NW USA_POCI USA_ROCI USA_RMW USA_EYE TOKYO_LAT TOKYO_LON TOKYO_GRADE TOKYO_WIND TOKYO_PRES TOKYO_R50_DIR TOKYO_R50_LONG TOKYO_R50_SHORT TOKYO_R30_DIR TOKYO_R30_LONG TOKYO_R30_SHORT TOKYO_LAND CMA_LAT CMA_LON CMA_CAT CMA_WIND CMA_PRES HKO_LAT HKO_LON HKO_CAT HKO_WIND HKO_PRES NEWDELHI_LAT NEWDELHI_LON NEWDELHI_GRADE NEWDELHI_WIND NEWDELHI_PRES NEWDELHI_CI NEWDELHI_DP NEWDELHI_POCI REUNION_LAT REUNION_LON REUNION_TYPE REUNION_WIND REUNION_PRES REUNION_TNUM REUNION_CI REUNION_RMW REUNION_R34_NE REUNION_R34_SE REUNION_R34_SW REUNION_R34_NW REUNION_R50_NE REUNION_R50_SE REUNION_R50_SW REUNION_R50_NW REUNION_R64_NE REUNION_R64_SE REUNION_R64_SW REUNION_R64_NW BOM_LAT BOM_LON BOM_TYPE BOM_WIND BOM_PRES BOM_TNUM BOM_CI BOM_RMW BOM_R34_NE BOM_R34_SE BOM_R34_SW BOM_R34_NW BOM_R50_NE BOM_R50_SE BOM_R50_SW BOM_R50_NW BOM_R64_NE BOM_R64_SE BOM_R64_SW BOM_R64_NW BOM_ROCI BOM_POCI BOM_EYE BOM_POS_METHOD BOM_PRES_METHOD NADI_LAT NADI_LON NADI_CAT NADI_WIND NADI_PRES WELLINGTON_LAT WELLINGTON_LON WELLINGTON_WIND WELLINGTON_PRES DS824_LAT DS824_LON DS824_STAGE DS824_WIND DS824_PRES TD9636_LAT TD9636_LON TD9636_STAGE TD9636_WIND TD9636_PRES TD9635_LAT TD9635_LON TD9635_WIND TD9635_PRES TD9635_ROCI NEUMANN_LAT NEUMANN_LON NEUMANN_CLASS NEUMANN_WIND NEUMANN_PRES MLC_LAT MLC_LON MLC_CLASS MLC_WIND MLC_PRES USA_GUST BOM_GUST BOM_GUST_PER REUNION_GUST REUNION_GUST_PER USA_SEAHGT USA_SEARAD_NE USA_SEARAD_SE USA_SEARAD_SW USA_SEARAD_NW STORM_SPEED STORM_DIR
2003158N08156 2003 36 WP MM SOUDELOR 2003-06-07 00:00:00 TS 8.20000 155.800 main 1337 1295 O_____________ jtwc_wp WP072003 8.20000 155.800 TD 15 1006 -1 20 271
2003158N08156 2003 36 WP MM SOUDELOR 2003-06-07 03:00:00 TS 8.21549 154.780 main 1295 1266 P_____________ WP072003 8.21549 154.780 TD 15 1006 -1 20 270
2003158N08156 2003 36 WP MM SOUDELOR 2003-06-07 06:00:00 TS 8.20000 153.800 main 1263 1232 O_____________ jtwc_wp WP072003 8.20000 153.800 TD 15 1006 -1 19 268
2003158N08156 2003 36 WP MM SOUDELOR 2003-06-07 09:00:00 TS 8.14244 152.910 main 1230 1218 P_____________ WP072003 8.14244 152.910 TD 15 1006 -1 16 266
2003158N08156 2003 36 WP MM SOUDELOR 2003-06-07 12:00:00 TS 8.10000 152.200 main 1218 1213 O_____________ jtwc_wp WP072003 8.10000 152.200 TD 15 1006 -1 12 270
2003158N08156 2003 36 WP MM SOUDELOR 2003-06-07 15:00:00 TS 8.14226 151.725 main 1213 1213 P_____________ WP072003 8.14226 151.725 TD 15 1006 -1 8 277
2003158N08156 2003 36 WP MM SOUDELOR 2003-06-07 18:00:00 TS 8.20000 151.400 main 1222 1221 O_____________ jtwc_wp WP072003 8.20000 151.400 TD 15 1006 -1 6 275
2003158N08156 2003 36 WP MM SOUDELOR 2003-06-07 21:00:00 TS 8.19994 151.085 main 1221 1214 P_____________ WP072003 8.19994 151.085 TD 15 1006 -1 6 270
2003158N08156 2003 36 WP MM SOUDELOR 2003-06-08 00:00:00 TS 8.20000 150.800 main 1214 1204 O_____________ jtwc_wp WP072003 8.20000 150.800 TD 15 1006 -1 1008 110 45 6 274
2003158N08156 2003 36 WP MM SOUDELOR 2003-06-08 03:00:00 TS 8.24249 150.493 main 1204 1204 P_____________ WP072003 8.24249 150.493 TD 15 1006 -1 6 280
2003158N08156 2003 36 WP MM SOUDELOR 2003-06-08 06:00:00 TS 8.30000 150.200 main 1206 1200 O_____________ jtwc_wp WP072003 8.30000 150.200 TD 15 1006 -1 5 281
2003158N08156 2003 36 WP MM SOUDELOR 2003-06-08 09:00:00 TS 8.34245 149.950 main 1197 1197 P_____________ WP072003 8.34245 149.950 TD 15 1006 -1 5 281
2003158N08156 2003 36 WP MM SOUDELOR 2003-06-08 12:00:00 TS 8.40000 149.700 main 1203 1201 O_____________ jtwc_wp WP072003 8.40000 149.700 TD 15 1006 -1 6 287
2003158N08156 2003 36 WP MM SOUDELOR 2003-06-08 15:00:00 TS 8.49997 149.415 main 1208 1206 P_____________ WP072003 8.49997 149.415 TD 15 1006 -1 6 289
2003158N08156 2003 36 WP MM SOUDELOR 2003-06-08 18:00:00 TS 8.60000 149.100 main 1213 1209 O_____________ jtwc_wp WP072003 8.60000 149.100 TD 15 1006 -1 6 284
2003158N08156 2003 36 WP MM SOUDELOR 2003-06-08 21:00:00 TS 8.65742 148.780 main 1220 1215 P_____________ WP072003 8.65742 148.780 TD 15 1006 -1 7 278
2003158N08156 2003 36 WP MM SOUDELOR 2003-06-09 00:00:00 TS 8.70000 148.400 main 1215 1212 O_____________ jtwc_wp WP072003 8.70000 148.400 TD 15 1006 -1 8 276
2003158N08156 2003 36 WP MM SOUDELOR 2003-06-09 03:00:00 TS 8.74998 147.930 main 1211 1211 P_____________ WP072003 8.74998 147.930 TD 15 1006 -1 10 276
2003158N08156 2003 36 WP MM SOUDELOR 2003-06-09 06:00:00 TS 8.80000 147.400 main 1221 1221 O_____________ jtwc_wp WP072003 8.80000 147.400 TD 15 1006 -1 11 275
2003158N08156 2003 36 WP MM SOUDELOR 2003-06-09 09:00:00 TS 8.84251 146.842 main 1221 1221 P_____________ WP072003 8.84251 146.842 TD 15 1006 -1 11 275
2003158N08156 2003 36 WP MM SOUDELOR 2003-06-09 12:00:00 TS 8.90000 146.300 main 1233 1233 O_____________ jtwc_wp WP072003 8.90000 146.300 TD 15 1006 -1 10 278
2003158N08156 2003 36 WP MM SOUDELOR 2003-06-09 15:00:00 TS 8.98491 145.827 main 1246 1246 P_____________ WP072003 8.98491 145.827 TD 17 1005 -1 9 283
2003158N08156 2003 36 WP MM SOUDELOR 2003-06-09 18:00:00 TS 9.10000 145.400 main 1262 1262 O_____________ jtwc_wp WP072003 9.10000 145.400 TD 20 1004 -1 1008 100 40 9 288
2003158N08156 2003 36 WP MM SOUDELOR 2003-06-09 21:00:00 TS 9.25743 144.993 main 1289 1289 P_____________ WP072003 9.25743 144.993 TD 20 1004 -1 1008 100 40 8 291
2003158N08156 2003 36 WP MM SOUDELOR 2003-06-10 00:00:00 TS 9.40000 144.600 main 1307 1307 O_____________ jtwc_wp WP072003 9.40000 144.600 TD 20 1004 -1 1008 100 40 8 285
2003158N08156 2003 36 WP MM SOUDELOR 2003-06-10 03:00:00 TS 9.46493 144.207 main 1326 1326 P_____________ WP072003 9.46493 144.207 TD 20 1004 -1 1008 100 40 8 277
2003158N08156 2003 36 WP MM SOUDELOR 2003-06-10 06:00:00 TS 9.50000 143.800 main 1336 1336 O_____________ jtwc_wp WP072003 9.50000 143.800 TD 20 1004 -1 1008 100 40 8 276
2003158N08156 2003 36 WP MM SOUDELOR 2003-06-10 09:00:00 TS 9.55741 143.373 main 1358 1358 P_____________ WP072003 9.55741 143.373 TD 20 1004 -1 1008 100 40 9 276
2003158N08156 2003 36 WP MM SOUDELOR 2003-06-10 12:00:00 TS 9.60000 142.900 main 1358 1338 O_____________ jtwc_wp WP072003 9.60000 142.900 TD 20 1004 -1 1008 100 40 10 273
2003158N08156 2003 36 WP MM SOUDELOR 2003-06-10 15:00:00 TS 9.60748 142.365 main 1338 1316 P_____________ WP072003 9.60748 142.365 TD 20 1004 -1 1008 100 40 11 270
2003158N08156 2003 36 WP MM SOUDELOR 2003-06-10 18:00:00 TS 9.60000 141.800 main 1316 1301 O_____________ jtwc_wp WP072003 9.60000 141.800 TD 20 1004 -1 1008 100 40 11 270
2003158N08156 2003 36 WP MM SOUDELOR 2003-06-10 21:00:00 TS 9.59988 141.258 main 1301 1281 P_____________ WP072003 9.59988 141.258 TD 20 1004 -1 1008 100 40 11 270
2003158N08156 2003 36 WP MM SOUDELOR 2003-06-11 00:00:00 TS 9.60000 140.700 main 1281 1254 O_____________ jtwc_wp WP072003 9.60000 140.700 TD 20 1004 -1 1008 100 40 11 271
2003158N08156 2003 36 WP MM SOUDELOR 2003-06-11 03:00:00 TS 9.61497 140.100 main 1254 1231 P_____________ WP072003 9.61497 140.100 TD 20 1004 -1 1008 100 40 12 270
2003158N08156 2003 36 WP MM SOUDELOR 2003-06-11 06:00:00 TS 9.60000 139.500 main 1231 1203 O_____________ jtwc_wp WP072003 9.60000 139.500 TD 20 1004 -1 1008 100 40 11 264
2003158N08156 2003 36 WP MM SOUDELOR 2003-06-11 09:00:00 TS 9.49984 138.950 main 1200 1173 P_____________ WP072003 9.49984 138.950 TD 20 1004 -1 1008 100 40 11 260
2003158N08156 2003 36 WP MM SOUDELOR 2003-06-11 12:00:00 TS 9.40000 138.400 main 1173 1157 O_____________ jtwc_wp WP072003 9.40000 138.400 TD 20 1004 -1 1008 100 40 11 264
2003158N08156 2003 36 WP MM SOUDELOR 2003-06-11 15:00:00 TS 9.37740 137.815 main 1157 1145 P_____________ WP072003 9.37740 137.815 TD 22 1003 -1 1008 100 40 12 270
2003158N08156 2003 36 WP MM SOUDELOR 2003-06-11 18:00:00 TS 9.40000 137.200 main 1145 1116 O_____________ jtwc_wp WP072003 9.40000 137.200 TD 25 1002 -1 1008 100 40 13 272
2003158N08156 2003 36 WP MM SOUDELOR 2003-06-11 21:00:00 TS 9.42746 136.550 main 1106 1084 P_____________ WP072003 9.42746 136.550 TD 25 1002 -1 1008 100 40 10 268
2003158N08156 2003 36 WP MM SOUDELOR 2003-06-12 00:00:00 TS 9.36667 136.233 1008 tokyo main 1073 1023 OOO___________ jtwc_wp WP072003 9.50000 135.900 TD 25 1002 -1 1008 100 40 9.10000 136.900 2 1008 0 0 0 9.10000 136.900 0 19 1008 9 282
2003158N08156 2003 36 WP MM SOUDELOR 2003-06-12 03:00:00 TS 9.63028 135.614 main 1012 956 PPP___________ WP072003 9.63496 135.270 TD 27 1001 -1 1008 100 37 9.61793 135.988 2 1007 0 0 9.63328 135.928 0 21 1007 14 296
2003158N08156 2003 36 WP MM SOUDELOR 2003-06-12 06:00:00 TS 9.98000 134.940 1006 tokyo main 948 904 OOO___________ jtwc_wp WP072003 9.80000 134.700 TD 30 1000 -1 1008 100 35 10.1000 135.100 2 1006 0 0 0 10.1000 135.100 1 23 1006 14 298
2003158N08156 2003 36 WP MM SOUDELOR 2003-06-12 09:00:00 TS 10.3040 134.344 main 893 855 PPP___________ WP072003 9.94984 134.227 TD 30 1000 -1 1008 100 35 10.5100 134.288 2 1006 0 0 10.4521 134.517 1 23 1006 12 298
2003158N08156 2003 36 WP MM SOUDELOR 2003-06-12 12:00:00 TS 10.5333 133.867 1006 tokyo main 855 825 OOO___________ jtwc_wp WP072003 10.1000 133.800 TD 30 1000 -1 1008 100 35 10.8000 133.700 2 1006 0 0 0 10.7000 134.100 1 23 1006 9 296
2003158N08156 2003 36 WP MM SOUDELOR 2003-06-12 15:00:00 TS 10.6864 133.552 main 828 798 PPP___________ WP072003 10.2423 133.372 TD 30 1000 -1 1007 100 35 10.9371 133.527 2 1006 0 0 10.8797 133.757 1 23 1006 7 293
2003158N08156 2003 36 WP MM SOUDELOR 2003-06-12 18:00:00 TS 10.8000 133.233 1006 tokyo main 787 737 OOO___________ jtwc_wp WP072003 10.4000 132.900 TD 30 1000 -1 1006 100 35 11.0000 133.400 2 1006 0 0 0 11.0000 133.400 1 23 1006 9 287
2003158N08156 2003 36 WP MM SOUDELOR 2003-06-12 21:00:00 TS 10.9384 132.694 main 737 677 PPP___________ WP072003 10.5850 132.330 TD 32 998 -1 1006 100 37 11.1153 132.888 2 1005 0 0 11.1151 132.865 1 26 1005 11 282
2003158N08156 2003 36 WP MM SOUDELOR 2003-06-13 00:00:00 TS 11.0385 132.115 1004 tokyo main 677 638 OOOO__________ jtwc_wp WP072003 10.8000 131.700 TS 35 997 0 1006 100 40 11.2000 132.300 2 1004 0 0 0 11.2000 132.300 1 29 1004 10.7000 132.300 TD 25 1002 10 281
2003158N08156 2003 36 WP MM SOUDELOR 2003-06-13 03:00:00 TS 11.1456 131.654 main 638 579 PPPP__________ WP072003 11.0649 131.058 TS 40 994 0 1006 105 40 11.1990 131.997 2 1002 0 0 11.2569 131.910 1 29 1003 10.9774 131.650 TD 27 1001 11 282
2003158N08156 2003 36 WP MM SOUDELOR 2003-06-13 06:00:00 TS 11.2533 131.060 35 1000 tokyo main 579 481 OOOO__________ jtwc_wp WP072003 11.3000 130.400 TS 45 991 0 80 80 80 80 1006 110 40 11.2000 131.500 3 35 1000 0 9 60 60 0 11.3000 131.400 1 29 1002 11.2000 130.900 TD 30 1000 15 278
2003158N08156 2003 36 WP MM SOUDELOR 2003-06-13 09:00:00 TS 11.3588 130.132 main 471 384 PPPP__________ WP072003 11.4375 129.720 TS 45 991 0 80 80 80 80 1006 110 37 11.3016 130.323 3 35 1000 0 9 80 80 11.3657 130.473 1 31 1000 11.3304 130.012 TD 32 999 18 275
2003158N08156 2003 36 WP MM SOUDELOR 2003-06-13 12:00:00 TS 11.4250 129.225 35 1000 tokyo main 373 319 OOOO__________ jtwc_wp WP072003 11.5000 129.100 TS 45 991 0 80 80 80 80 1006 110 35 11.4000 129.100 3 35 1000 0 9 100 100 0 11.4000 129.500 2 34 998 11.4000 129.200 TS 35 998 15 273
2003158N08156 2003 36 WP MM SOUDELOR 2003-06-13 15:00:00 TS 11.4321 128.628 main 308 265 PPPP__________ WP072003 11.5223 128.612 TS 47 989 0 90 90 105 105 1005 115 32 11.4143 128.407 3 37 998 0 9 110 110 11.3496 128.817 2 34 998 11.4421 128.675 TS 35 998 10 270
2003158N08156 2003 36 WP MM SOUDELOR 2003-06-13 18:00:00 TS 11.4250 128.200 40 996 tokyo main 265 222 OOOO__________ jtwc_wp WP072003 11.5000 128.200 TS 50 987 0 100 100 130 130 1005 120 30 11.4000 128.000 3 40 996 0 9 120 120 0 11.3000 128.300 2 34 998 11.5000 128.300 TS 35 998 8 269
2003158N08156 2003 36 WP MM SOUDELOR 2003-06-13 21:00:00 TS 11.4174 127.812 main 222 193 PPPP__________ WP072003 11.4050 127.762 TS 50 987 0 100 100 130 130 1005 120 30 11.3623 127.712 3 40 996 0 9 120 120 11.2674 127.855 2 36 996 11.6349 127.920 TS 35 998 7 276
2003158N08156 2003 36 WP MM SOUDELOR 2003-06-14 00:00:00 TS 11.5000 127.500 40 996 tokyo main 193 176 OOOO__________ jtwc_wp WP072003 11.4000 127.400 TS 50 987 0 100 100 130 130 1005 120 30 11.4000 127.500 3 40 996 0 9 120 120 0 11.4000 127.500 2 38 995 11.8000 127.600 TS 35 998 7 302
2003158N08156 2003 36 WP MM SOUDELOR 2003-06-14 03:00:00 TS 11.7793 127.224 main 177 163 PPPP__________ WP072003 11.6624 127.170 TS 47 989 0 100 100 115 115 1005 135 30 11.6125 127.208 3 40 996 0 9 120 120 11.9074 127.185 2 38 995 11.9349 127.335 TS 35 998 8 319
2003158N08156 2003 36 WP MM SOUDELOR 2003-06-14 06:00:00 TS 12.1000 126.975 40 996 tokyo main 163 130 OOOO__________ jtwc_wp WP072003 12.0000 127.000 TS 45 991 0 100 100 100 100 1005 150 30 11.9000 126.900 3 40 996 0 9 120 120 0 12.4000 126.900 2 38 995 12.1000 127.100 TS 35 998 7 314
2003158N08156 2003 36 WP MM SOUDELOR 2003-06-14 09:00:00 TS 12.2712 126.701 main 130 110 PPPP__________ WP072003 12.1925 126.785 TS 45 991 0 105 100 100 100 1005 157 30 12.1350 126.585 3 40 996 0 9 135 110 12.4225 126.585 2 38 995 12.3350 126.850 TS 35 998 6 304
2003158N08156 2003 36 WP MM SOUDELOR 2003-06-14 12:00:00 TS 12.4500 126.450 40 996 tokyo main 113 97 OOOO__________ jtwc_wp WP072003 12.4000 126.600 TS 45 991 0 110 100 100 100 1005 165 30 12.4000 126.300 3 40 996 0 3 150 100 0 12.4000 126.300 2 38 995 12.6000 126.600 TS 35 998 6 316
2003158N08156 2003 36 WP MM SOUDELOR 2003-06-14 15:00:00 TS 12.7356 126.246 main 94 94 PPPP__________ WP072003 12.7275 126.485 TS 45 991 0 105 100 100 100 1005 142 30 12.7125 126.077 3 40 996 0 3 150 100 12.6750 126.078 2 38 995 12.8275 126.342 TS 35 998 8 331
2003158N08156 2003 36 WP MM SOUDELOR 2003-06-14 18:00:00 TS 13.1000 126.075 40 996 tokyo main 116 116 OOOO__________ jtwc_wp WP072003 13.1000 126.400 TS 45 991 0 100 100 100 100 1005 120 30 13.1000 125.900 3 40 996 0 3 150 100 0 13.1000 125.900 2 38 995 13.1000 126.100 TS 35 998 9 338
2003158N08156 2003 36 WP MM SOUDELOR 2003-06-14 21:00:00 TS 13.5281 125.914 main 135 135 PPPP__________ WP072003 13.4575 126.307 TS 45 991 0 100 100 100 100 1005 120 30 13.5850 125.735 3 42 995 0 3 150 100 13.5850 125.735 2 38 995 13.4850 125.878 TS 37 996 9 342
2003158N08156 2003 36 WP MM SOUDELOR 2003-06-15 00:00:00 TS 13.9750 125.775 45 994 tokyo main 151 142 OOOO__________ jtwc_wp WP072003 13.8000 126.200 TS 45 991 0 100 100 100 100 1005 120 30 14.1000 125.600 3 45 994 0 3 150 100 0 14.1000 125.600 2 38 995 13.9000 125.700 TS 40 995 9 344
2003158N08156 2003 36 WP MM SOUDELOR 2003-06-15 03:00:00 TS 14.3756 125.670 main 151 145 PPPP__________ WP072003 14.1150 126.072 TS 47 989 0 100 100 100 100 1005 120 30 14.5649 125.515 3 47 992 0 3 165 110 14.5650 125.507 2 41 992 14.2575 125.585 TS 42 992 8 344
2003158N08156 2003 36 WP MM SOUDELOR 2003-06-15 06:00:00 TS 14.7500 125.550 50 990 tokyo main 163 155 OOOO__________ jtwc_wp WP072003 14.4000 125.900 TS 50 987 0 100 100 100 100 1005 120 30 15.0000 125.400 4 50 990 0 3 180 120 0 15.0000 125.400 2 44 990 14.6000 125.500 TS 45 990 8 337
2003158N08156 2003 36 WP MM SOUDELOR 2003-06-15 09:00:00 TS 15.1075 125.356 main 170 163 PPPP__________ WP072003 14.6425 125.665 TS 52 985 0 115 105 100 100 1005 157 27 15.4226 125.150 4 50 987 0 3 190 125 15.4225 125.200 2 46 990 14.9425 125.407 TS 45 990 8 331
2003158N08156 2003 36 WP MM SOUDELOR 2003-06-15 12:00:00 TS 15.4500 125.150 50 985 tokyo main 193 184 OOOO__________ jtwc_wp WP072003 14.9000 125.400 TS 55 984 0 130 110 100 100 1005 195 25 15.8000 124.900 4 50 985 0 3 200 130 0 15.8000 125.000 3 48 990 15.3000 125.300 TS 45 990 8 332
2003158N08156 2003 36 WP MM SOUDELOR 2003-06-15 15:00:00 TS 15.7912 124.987 main 215 215 PPPP__________ WP072003 15.2200 125.142 TS 57 982 0 130 110 100 100 1005 157 25 16.1225 124.762 4 52 982 0 3 210 130 16.1225 124.877 3 51 987 15.7000 125.165 TS 47 987 7 337
2003158N08156 2003 36 WP MM SOUDELOR 2003-06-15 18:00:00 TS 16.1250 124.850 55 980 tokyo main 243 241 OOOO__________ jtwc_wp WP072003 15.6000 124.900 TS 60 980 0 130 110 100 100 1005 120 25 16.4000 124.700 4 55 980 9 30 30 3 220 130 0 16.4000 124.800 3 54 985 16.1000 125.000 STS 50 985 7 341
2003158N08156 2003 36 WP MM SOUDELOR 2003-06-15 21:00:00 TS 16.4481 124.758 main 251 223 PPPP__________ WP072003 16.0424 124.700 TS 60 980 0 130 110 100 100 1005 120 25 16.6424 124.730 4 55 980 9 35 35 3 245 140 16.6499 124.787 3 54 985 16.4575 124.815 STS 52 982 7 342
2003158N08156 2003 36 WP MM SOUDELOR 2003-06-16 00:00:00 TS 16.7750 124.625 55 980 tokyo main 223 202 OOOO__________ jtwc_wp WP072003 16.5000 124.500 TS 60 980 0 130 110 100 100 1005 120 25 16.9000 124.700 4 55 980 9 40 40 3 270 150 0 16.9000 124.700 3 54 985 16.8000 124.600 STS 55 980 8 331
2003158N08156 2003 36 WP MM SOUDELOR 2003-06-16 03:00:00 TS 17.1194 124.366 main 202 175 PPPP__________ WP072003 16.9075 124.265 TS 60 980 0 130 115 105 100 1005 120 25 17.2350 124.460 4 55 980 9 40 40 3 270 150 17.1852 124.380 3 56 982 17.1500 124.357 STS 55 980 9 322
2003158N08156 2003 36 WP MM SOUDELOR 2003-06-16 06:00:00 TS 17.4750 124.050 55 980 tokyo main 178 148 OOOO__________ jtwc_wp WP072003 17.3000 124.000 TS 60 980 0 130 120 110 100 1005 120 25 17.6000 124.100 4 55 980 9 40 40 3 270 150 0 17.5000 124.000 3 58 980 17.5000 124.100 STS 55 980 9 320
2003158N08156 2003 36 WP MM SOUDELOR 2003-06-16 09:00:00 TS 17.8263 123.733 main 148 127 PPPP__________ WP072003 17.6925 123.692 TS 60 980 0 130 120 110 100 1005 120 25 17.9352 123.678 4 55 980 9 40 40 3 270 150 17.8350 123.720 3 58 980 17.8425 123.842 STS 55 980 9 322
2003158N08156 2003 36 WP MM SOUDELOR 2003-06-16 12:00:00 TS 18.2000 123.450 55 980 tokyo main 127 97 OOOO__________ jtwc_wp WP072003 18.1000 123.400 TS 60 980 0 130 120 110 100 1005 120 25 18.3000 123.300 4 55 980 9 40 40 3 270 150 0 18.2000 123.500 3 58 980 18.2000 123.600 STS 55 980 9 329
2003158N08156 2003 36 WP MM SOUDELOR 2003-06-16 15:00:00 TS 18.6250 123.234 main 97 97 PPPP__________ WP072003 18.5350 123.148 TS 62 978 0 130 125 120 115 1005 130 22 18.7724 123.105 4 55 980 9 50 50 3 270 145 18.5925 123.313 3 58 980 18.6000 123.370 STS 55 980 9 339
2003158N08156 2003 36 WP MM SOUDELOR 2003-06-16 18:00:00 TS 19.0500 123.100 55 980 tokyo main 115 115 OOOO__________ jtwc_wp WP072003 19.0000 123.000 TY 65 976 1 130 130 130 130 1005 140 20 15 19.2000 123.000 4 55 980 9 60 60 3 270 140 0 19.0000 123.200 3 58 980 19.0000 123.200 STS 55 980 8 347
2003158N08156 2003 36 WP MM SOUDELOR 2003-06-16 21:00:00 TS 19.4050 123.036 main 133 133 PPPP__________ WP072003 19.5075 123.012 TY 70 971 1 130 130 130 130 1005 140 20 19.3850 122.848 4 57 977 9 80 60 3 260 130 19.3925 123.170 3 58 980 19.3350 123.112 STS 57 977 7 357
2003158N08156 2003 36 WP MM SOUDELOR 2003-06-17 00:00:00 TS 19.7750 123.050 60 975 tokyo main 177 177 OOOO__________ jtwc_wp WP072003 20.0000 123.100 TY 75 967 1 130 130 130 130 1005 140 20 15 19.6000 122.800 4 60 975 3 100 60 3 250 120 0 19.8000 123.200 3 58 980 19.7000 123.100 STS 60 975 8 5
2003158N08156 2003 36 WP MM SOUDELOR 2003-06-17 03:00:00 TS 20.2041 123.104 main 218 218 PPPP__________ WP072003 20.3775 123.128 TY 75 967 1 140 140 125 125 1005 140 27 20.0716 122.939 4 60 975 3 100 60 3 250 120 20.2125 123.235 3 61 977 20.1550 123.113 STS 62 972 10 10
2003158N08156 2003 36 WP MM SOUDELOR 2003-06-17 06:00:00 TS 20.7250 123.225 60 975 tokyo main 273 263 OOOO__________ jtwc_wp WP072003 20.8000 123.200 TY 75 967 1 150 150 120 120 1005 140 35 30 20.7000 123.200 4 60 975 3 100 60 3 250 120 0 20.7000 123.300 4 64 975 20.7000 123.200 T 65 970 12 14
2003158N08156 2003 36 WP MM SOUDELOR 2003-06-17 09:00:00 TS 21.3557 123.417 60 975 tokyo main 264 253 POPP__________ WP072003 21.3976 123.392 TY 75 967 1 150 150 120 120 1004 140 35 21.4000 123.500 4 60 975 3 100 60 3 250 120 0 21.3050 123.385 4 66 972 21.3201 123.392 T 65 970 13 14
2003158N08156 2003 36 WP MM SOUDELOR 2003-06-17 12:00:00 TS 22.0250 123.575 65 970 tokyo main 257 238 OOOO__________ jtwc_wp WP072003 22.1000 123.600 TY 75 967 1 150 150 120 120 1004 140 35 30 22.0000 123.600 5 65 970 3 120 60 3 250 120 0 22.0000 123.500 4 68 970 22.0000 123.600 T 65 970 14 11
2003158N08156 2003 36 WP MM SOUDELOR 2003-06-17 15:00:00 TS 22.7350 123.699 65 970 tokyo main 239 222 POPP__________ WP072003 22.8275 123.723 TY 82 960 1 150 150 120 120 1004 150 30 22.7000 123.700 5 65 970 3 120 60 3 250 120 0 22.7350 123.657 4 68 970 22.6775 123.715 T 65 970 15 8
2003158N08156 2003 36 WP MM SOUDELOR 2003-06-17 18:00:00 TS 23.5250 123.800 65 970 tokyo main 222 197 OOOO__________ jtwc_wp WP072003 23.6000 123.800 TY 90 954 2 150 150 120 120 1004 160 25 10 23.6000 123.800 5 65 970 3 120 60 3 250 120 0 23.5000 123.800 4 68 970 23.4000 123.800 T 65 970 16 5
2003158N08156 2003 36 WP MM SOUDELOR 2003-06-17 20:00:00 TS 24.0770 123.822 65 968 tokyo main 197 193 POPP__________ WP072003 24.1579 123.815 TY 93 950 2 153 153 120 120 1004 163 21 24.2000 123.800 5 65 968 3 120 60 3 250 120 1 24.0108 123.823 4 71 966 23.9392 123.851 T 66 968 16 3
2003158N08156 2003 36 WP MM SOUDELOR 2003-06-17 21:00:00 TS 24.3043 123.832 70 965 tokyo main 193 186 POPP__________ WP072003 24.4374 123.821 TY 95 949 2 155 155 120 120 1004 165 20 24.3000 123.800 5 70 965 3 120 60 3 250 120 0 24.2649 123.828 4 72 965 24.2149 123.878 T 67 967 15 5
2003158N08156 2003 36 WP MM SOUDELOR 2003-06-18 00:00:00 TS 25.0750 123.925 75 960 tokyo main 191 191 OOOO__________ jtwc_wp WP072003 25.2000 123.900 TY 100 944 3 160 160 120 120 1004 170 15 15 25.1000 123.900 5 75 960 3 100 50 3 230 100 0 25.0000 123.900 4 77 960 25.0000 124.000 T 70 965 14 12
2003158N08156 2003 36 WP MM SOUDELOR 2003-06-18 03:00:00 TS 25.6374 124.141 75 960 tokyo main 221 221 POPP__________ WP072003 25.6999 124.141 TY 107 935 3 160 160 140 140 1004 175 15 25.6000 124.100 5 75 960 3 100 50 3 230 100 0 25.6499 124.133 4 82 957 25.5998 124.191 T 72 962 13 23
2003158N08156 2003 36 WP MM SOUDELOR 2003-06-18 06:00:00 TS 26.2750 124.500 80 955 tokyo main 289 289 OOOO__________ jtwc_wp WP072003 26.2000 124.500 TY 115 927 4 160 160 160 160 1004 180 15 20 26.4000 124.500 5 80 955 3 100 50 3 230 100 0 26.3000 124.500 5 87 955 26.2000 124.500 T 75 960 15 29
2003158N08156 2003 36 WP MM SOUDELOR 2003-06-18 09:00:00 TS 26.9753 124.958 80 955 tokyo main 364 360 POPP__________ WP072003 26.8794 124.870 TY 115 927 4 160 150 150 160 1004 180 15 27.1000 125.100 5 80 955 3 100 50 3 230 100 0 26.9897 124.934 5 87 955 26.9323 124.926 T 75 960 18 30
2003158N08156 2003 36 WP MM SOUDELOR 2003-06-18 12:00:00 TS 27.8000 125.475 75 960 tokyo main 375 370 OOOO__________ jtwc_wp WP072003 27.8000 125.400 TY 115 927 4 160 140 140 160 1004 180 15 20 27.8000 125.500 5 75 960 3 100 50 3 230 100 0 27.8000 125.500 5 87 955 27.8000 125.500 T 75 960 22 28
2003158N08156 2003 36 WP MM SOUDELOR 2003-06-18 15:00:00 TS 28.8768 126.123 75 960 tokyo main 399 357 POPP__________ WP072003 29.0634 126.210 TY 100 942 3 140 110 100 130 1003 155 15 28.9000 125.800 5 75 960 3 90 40 3 230 100 0 28.7682 126.242 5 82 960 28.7757 126.242 T 72 962 25 27
2003158N08156 2003 36 WP MM SOUDELOR 2003-06-18 18:00:00 TS 30.0250 126.775 70 965 tokyo main 351 235 OOOO__________ jtwc_wp WP072003 30.4000 127.100 TY 85 958 2 120 80 60 100 1002 130 15 29.9000 126.000 5 70 965 3 80 40 3 230 100 0 29.9000 127.000 4 77 965 29.9000 127.000 T 70 965 26 26
2003158N08156 2003 36 WP MM SOUDELOR 2003-06-18 21:00:00 TS 31.2198 127.449 65 970 tokyo main 235 142 POPP__________ WP072003 31.4265 127.813 TY 77 965 1 120 80 60 110 1002 130 15 31.1000 126.900 5 65 970 3 70 30 3 210 80 0 31.1839 127.553 4 67 970 31.1686 127.532 T 67 967 28 26
2003158N08156 2003 36 WP MM SOUDELOR 2003-06-19 00:00:00 TS 32.5000 128.200 60 975 tokyo main 138 77 OOOO__________ jtwc_wp WP072003 32.5000 128.500 TY 70 972 1 120 80 60 120 1003 130 15 32.5000 128.100 4 60 975 3 60 30 3 210 80 0 32.5000 128.100 3 58 975 32.5000 128.100 T 65 970 29 26
2003158N08156 2003 36 WP MM SOUDELOR 2003-06-19 03:00:00 TS 33.8320 128.939 60 975 tokyo main 85 85 POPP__________ WP072003 33.9560 129.226 TY 67 974 1 120 80 60 120 1003 130 17 33.9000 128.900 4 60 975 3 50 30 3 190 80 0 33.6860 128.756 3 56 977 33.7859 128.875 T 60 975 29 26
2003158N08156 2003 36 WP MM SOUDELOR 2003-06-19 04:00:00 TS 34.2314 129.222 60 975 tokyo main 91 56 POPP__________ WP072003 34.4595 129.494 TY 66 974 1 120 80 60 120 1003 130 18 34.2000 129.200 4 60 975 3 50 30 3 190 80 1 34.0640 129.011 3 55 978 34.2021 129.186 T 58 976 27 31
2003158N08156 2003 36 WP MM SOUDELOR 2003-06-19 06:00:00 TS 35.0000 129.793 55 980 tokyo main 56 55 OOOO__________ jtwc_wp WP072003 35.4000 130.100 TY 65 976 1 120 80 60 120 1003 130 20 34.8000 129.600 4 55 980 9 30 30 1 120 80 0 34.8000 129.600 3 54 980 35.0000 129.900 STS 55 980 30 38
2003158N08156 2003 36 WP MM SOUDELOR 2003-06-19 09:00:00 TS 36.1759 131.070 55 980 tokyo main 136 136 POPP__________ WP072003 36.4827 131.242 TY 60 980 0 36.2000 131.200 4 55 980 9 30 30 1 120 80 0 35.8869 130.696 3 51 982 36.0921 131.209 STS 50 985 28 43
2003158N08156 2003 36 WP MM SOUDELOR 2003-06-19 12:00:00 TS 37.0692 132.208 50 985 tokyo main 188 186 OOOO__________ jtwc_wp WP072003 37.4000 132.500 TS 55 984 0 36.9000 132.000 4 50 985 0 9 100 100 0 36.9000 132.000 3 48 985 37.1000 132.700 TS 45 990 26 50
2003158N08156 2003 36 WP MM SOUDELOR 2003-06-19 15:00:00 MX 37.8933 133.598 985 tokyo main 265 233 POP___________ WP072003 38.3514 133.709 TS 50 987 0 37.5000 133.700 6 985 0 0 0 37.8284 133.387 3 43 987 TS 28 50
2003158N08156 2003 36 WP MM SOUDELOR 2003-06-19 18:00:00 MX 38.8364 134.900 988 tokyo main 227 223 OOO___________ jtwc_wp WP072003 39.2000 134.900 TS 45 991 0 38.7000 134.900 6 988 0 0 0 38.7000 134.900 2 38 990 29 51
2003158N08156 2003 36 WP MM SOUDELOR 2003-06-19 21:00:00 MX 39.6994 136.480 main 257 154 PPP___________ WP072003 39.8971 136.057 TS 45 991 0 39.6800 136.551 6 992 0 0 39.6200 136.621 2 33 993 29 57
2003158N08156 2003 36 WP MM SOUDELOR 2003-06-20 00:00:00 MX 40.4111 138.089 996 tokyo main 146 75 OOO___________ jtwc_wp WP072003 40.5000 137.200 TS 45 991 0 40.4000 138.200 6 996 0 0 0 40.4000 138.200 1 29 996 24 58
2003158N08156 2003 36 WP MM SOUDELOR 2003-06-20 03:00:00 MX 40.9514 139.156 main 73 11 _PP___________ WP072003 TS -1 40.9551 139.156 6 996 0 0 40.9476 139.156 1 29 996 18 60
2003158N08156 2003 36 WP MM SOUDELOR 2003-06-20 06:00:00 ET 41.3000 140.100 996 tokyo main 11 0 _OO___________ 41.3000 140.100 6 996 0 0 0 41.3000 140.100 9 29 996 20 75
2003158N08156 2003 36 WP MM SOUDELOR 2003-06-20 09:00:00 ET 41.4707 141.726 main 33 33 _PP___________ 41.4346 141.731 6 996 0 0 41.5069 141.722 9 29 996 25 84
2003158N08156 2003 36 WP MM SOUDELOR 2003-06-20 12:00:00 ET 41.5500 143.400 996 tokyo main 37 41 _OO___________ 41.5000 143.400 6 996 0 0 0 41.6000 143.400 9 29 996 22 83
2003158N08156 2003 36 WP MM SOUDELOR 2003-06-20 15:00:00 ET 41.7566 144.670 main 117 115 _PP___________ 41.7851 144.640 6 996 0 0 41.7281 144.700 9 29 996 17 78
2003158N08156 2003 36 WP MM SOUDELOR 2003-06-20 18:00:00 ET 41.9143 145.643 996 tokyo main 129 129 _OO___________ 42.0000 145.600 6 996 0 0 0 41.8000 145.700 9 29 996 13 84
2003158N08156 2003 36 WP MM SOUDELOR 2003-06-20 21:00:00 ET 41.8798 146.378 main 162 162 _PP___________ 41.9306 146.354 6 995 0 0 41.7781 146.426 9 29 996 10 102
2003158N08156 2003 36 WP MM SOUDELOR 2003-06-21 00:00:00 ET 41.7000 147.000 994 tokyo main 207 207 _OO___________ 41.7000 147.000 6 994 0 0 0 41.7000 147.000 9 29 996 11 114
2003158N08156 2003 36 WP MM SOUDELOR 2003-06-21 03:00:00 ET 41.4149 147.758 main 274 274 _P____________ 41.4149 147.758 6 994 0 0 9 13 118
2003158N08156 2003 36 WP MM SOUDELOR 2003-06-21 06:00:00 ET 41.1000 148.500 994 tokyo main 339 339 _O____________ 41.1000 148.500 6 994 0 0 0 12 117
2003158N08156 2003 36 WP MM SOUDELOR 2003-06-21 09:00:00 ET 40.8645 149.171 main 397 397 _P____________ 40.8645 149.171 6 995 0 0 11 117
2003158N08156 2003 36 WP MM SOUDELOR 2003-06-21 12:00:00 ET 40.6000 149.800 996 tokyo main 457 457 _O____________ 40.6000 149.800 6 996 0 0 0 12 124
2003158N08156 2003 36 WP MM SOUDELOR 2003-06-21 15:00:00 ET 40.2074 150.431 main 524 524 _P____________ 40.2074 150.431 6 996 0 0 12 131
2003158N08156 2003 36 WP MM SOUDELOR 2003-06-21 18:00:00 ET 39.8000 151.000 996 tokyo main 592 592 _O____________ 39.8000 151.000 6 996 0 0 0 10 133
2003158N08156 2003 36 WP MM SOUDELOR 2003-06-21 21:00:00 ET 39.5064 151.425 main 640 640 _P____________ 39.5064 151.425 6 996 0 0 9 131
2003158N08156 2003 36 WP MM SOUDELOR 2003-06-22 00:00:00 ET 39.2000 151.900 996 tokyo main 694 694 _O____________ 39.2000 151.900 6 996 0 0 0 12 128
2003158N08156 2003 36 WP MM SOUDELOR 2003-06-22 03:00:00 ET 38.7730 152.621 main 769 769 _P____________ 38.7730 152.621 6 997 0 0 15 128
2003158N08156 2003 36 WP MM SOUDELOR 2003-06-22 06:00:00 ET 38.3000 153.400 998 tokyo main 857 857 _O____________ 38.3000 153.400 6 998 0 0 0 15 130
2003158N08156 2003 36 WP MM SOUDELOR 2003-06-22 09:00:00 ET 37.8123 154.095 main 940 940 _P____________ 37.8123 154.095 6 998 0 0 14 131
2003158N08156 2003 36 WP MM SOUDELOR 2003-06-22 12:00:00 ET 37.4000 154.700 998 tokyo main 1001 1001 _O____________ 37.4000 154.700 6 998 0 0 0 11 130
2003158N08156 2003 36 WP MM SOUDELOR 2003-06-22 15:00:00 ET 37.1313 155.134 main 1046 1046 _P____________ 37.1313 155.134 6 998 0 0 8 119
2003158N08156 2003 36 WP MM SOUDELOR 2003-06-22 18:00:00 ET 37.0000 155.600 998 tokyo main 1074 1074 _O____________ 37.0000 155.600 6 998 0 0 0 9 106
2003158N08156 2003 36 WP MM SOUDELOR 2003-06-22 21:00:00 ET 36.8795 156.270 main 1112 1112 _P____________ 36.8795 156.270 6 998 0 0 12 90
2003158N08156 2003 36 WP MM SOUDELOR 2003-06-23 00:00:00 ET 37.0000 157.100 998 tokyo main 1136 1131 _O____________ 37.0000 157.100 6 998 0 0 0 16 65
2003158N08156 2003 36 WP MM SOUDELOR 2003-06-23 03:00:00 ET 37.5553 158.066 main 1128 1122 _P____________ 37.5553 158.066 6 998 0 0 20 53
2003158N08156 2003 36 WP MM SOUDELOR 2003-06-23 06:00:00 ET 38.2000 159.100 998 tokyo main 1128 1124 _O____________ 38.2000 159.100 6 998 0 0 0 19 58
2003158N08156 2003 36 WP MM SOUDELOR 2003-06-23 09:00:00 ET 38.5679 160.134 main 1148 1148 _P____________ 38.5679 160.134 6 998 0 0 16 68
2003158N08156 2003 36 WP MM SOUDELOR 2003-06-23 12:00:00 ET 38.8000 161.000 998 tokyo main 1184 1184 _O____________ 38.8000 161.000 6 998 0 0 0 12 69
2003158N08156 2003 36 WP MM SOUDELOR 2003-06-23 15:00:00 ET 38.9863 161.549 main 1199 1199 _P____________ 38.9863 161.549 6 1000 0 0 8 67
2003158N08156 2003 36 WP MM SOUDELOR 2003-06-23 18:00:00 ET 39.1000 161.900 1002 tokyo main 1216 1216 _O____________ 39.1000 161.900 6 1002 0 0 0 5 71
2003158N08156 2003 36 WP MM SOUDELOR 2003-06-23 21:00:00 ET 39.1630 162.205 main 1228 1228 _P____________ 39.1630 162.205 6 1003 0 0 5 78
2003158N08156 2003 36 WP MM SOUDELOR 2003-06-24 00:00:00 ET 39.2000 162.500 1004 tokyo main 1247 _O____________ 39.2000 162.500 6 1004 0 0 0 5 81

デジタル台風データ・検索

IBTrACS Databaseについて

本データベースは、米国NOAAが公開する1842年以降の世界の熱帯低気圧のベストトラックデータアーカイブInternational Best Track Archive for Climate Stewardship (IBTrACS)を、ウェブで閲覧しやすい形式に変換したものです。

最終更新日:2021-12-06